sensor_id;sensor_type;location;lat;lon;timestamp;P1;durP1;ratioP1;P2;durP2;ratioP2
32146;SDS011;32190;49.112;8.598;2024-01-30T00:03:18;1.88;;;1.50;;
32146;SDS011;32190;49.112;8.598;2024-01-30T00:09:09;1.60;;;1.50;;
32146;SDS011;32190;49.112;8.598;2024-01-30T00:15:02;1.98;;;1.88;;
32146;SDS011;32190;49.112;8.598;2024-01-30T00:20:54;2.47;;;1.77;;
32146;SDS011;32190;49.112;8.598;2024-01-30T00:26:45;2.35;;;1.58;;
32146;SDS011;32190;49.112;8.598;2024-01-30T00:32:36;2.13;;;1.80;;
32146;SDS011;32190;49.112;8.598;2024-01-30T00:38:27;2.40;;;2.00;;
32146;SDS011;32190;49.112;8.598;2024-01-30T00:44:17;2.13;;;1.92;;
32146;SDS011;32190;49.112;8.598;2024-01-30T00:50:10;1.85;;;1.75;;
32146;SDS011;32190;49.112;8.598;2024-01-30T00:56:04;2.42;;;1.83;;
32146;SDS011;32190;49.112;8.598;2024-01-30T01:01:55;1.95;;;1.85;;
32146;SDS011;32190;49.112;8.598;2024-01-30T01:07:45;1.65;;;1.55;;
32146;SDS011;32190;49.112;8.598;2024-01-30T01:13:38;2.15;;;1.88;;
32146;SDS011;32190;49.112;8.598;2024-01-30T01:19:28;1.63;;;1.52;;
32146;SDS011;32190;49.112;8.598;2024-01-30T01:25:19;1.67;;;1.58;;
32146;SDS011;32190;49.112;8.598;2024-01-30T01:31:09;2.00;;;1.80;;
32146;SDS011;32190;49.112;8.598;2024-01-30T01:37:14;2.20;;;1.92;;
32146;SDS011;32190;49.112;8.598;2024-01-30T01:43:05;2.72;;;2.53;;
32146;SDS011;32190;49.112;8.598;2024-01-30T01:49:00;2.53;;;2.25;;
32146;SDS011;32190;49.112;8.598;2024-01-30T01:54:52;2.30;;;1.80;;
32146;SDS011;32190;49.112;8.598;2024-01-30T02:01:20;1.80;;;1.70;;
32146;SDS011;32190;49.112;8.598;2024-01-30T02:07:55;1.85;;;1.75;;
32146;SDS011;32190;49.112;8.598;2024-01-30T02:20:59;1.58;;;1.48;;
32146;SDS011;32190;49.112;8.598;2024-01-30T02:26:56;1.83;;;1.70;;
32146;SDS011;32190;49.112;8.598;2024-01-30T02:32:52;1.52;;;1.42;;
32146;SDS011;32190;49.112;8.598;2024-01-30T02:38:43;2.35;;;1.92;;
32146;SDS011;32190;49.112;8.598;2024-01-30T02:44:34;2.97;;;1.83;;
32146;SDS011;32190;49.112;8.598;2024-01-30T02:50:24;4.03;;;2.10;;
32146;SDS011;32190;49.112;8.598;2024-01-30T02:56:15;6.25;;;2.20;;
32146;SDS011;32190;49.112;8.598;2024-01-30T03:02:06;2.55;;;2.00;;
32146;SDS011;32190;49.112;8.598;2024-01-30T03:07:56;3.15;;;1.85;;
32146;SDS011;32190;49.112;8.598;2024-01-30T03:13:47;1.63;;;1.52;;
32146;SDS011;32190;49.112;8.598;2024-01-30T03:19:37;2.03;;;1.80;;
32146;SDS011;32190;49.112;8.598;2024-01-30T03:25:28;1.90;;;1.80;;
32146;SDS011;32190;49.112;8.598;2024-01-30T03:31:19;2.42;;;1.70;;
32146;SDS011;32190;49.112;8.598;2024-01-30T03:37:12;1.90;;;1.70;;
32146;SDS011;32190;49.112;8.598;2024-01-30T03:43:05;1.83;;;1.70;;
32146;SDS011;32190;49.112;8.598;2024-01-30T03:48:56;1.92;;;1.67;;
32146;SDS011;32190;49.112;8.598;2024-01-30T03:54:52;1.88;;;1.73;;
32146;SDS011;32190;49.112;8.598;2024-01-30T04:00:58;2.55;;;1.85;;
32146;SDS011;32190;49.112;8.598;2024-01-30T04:08:06;1.75;;;1.65;;
32146;SDS011;32190;49.112;8.598;2024-01-30T04:14:40;1.77;;;1.67;;
32146;SDS011;32190;49.112;8.598;2024-01-30T04:20:44;1.60;;;1.50;;
32146;SDS011;32190;49.112;8.598;2024-01-30T04:33:19;2.00;;;1.90;;
32146;SDS011;32190;49.112;8.598;2024-01-30T04:39:12;1.98;;;1.77;;
32146;SDS011;32190;49.112;8.598;2024-01-30T04:45:03;2.22;;;1.70;;
32146;SDS011;32190;49.112;8.598;2024-01-30T04:50:55;2.00;;;1.60;;
32146;SDS011;32190;49.112;8.598;2024-01-30T04:56:46;1.80;;;1.70;;
32146;SDS011;32190;49.112;8.598;2024-01-30T05:02:37;2.00;;;1.42;;
32146;SDS011;32190;49.112;8.598;2024-01-30T05:08:28;1.67;;;1.50;;
32146;SDS011;32190;49.112;8.598;2024-01-30T05:14:19;1.63;;;1.48;;
32146;SDS011;32190;49.112;8.598;2024-01-30T05:20:09;2.33;;;1.83;;
32146;SDS011;32190;49.112;8.598;2024-01-30T05:26:00;1.58;;;1.48;;
32146;SDS011;32190;49.112;8.598;2024-01-30T05:31:52;2.45;;;1.83;;
32146;SDS011;32190;49.112;8.598;2024-01-30T05:37:49;2.20;;;2.00;;
32146;SDS011;32190;49.112;8.598;2024-01-30T05:43:40;2.63;;;2.05;;
32146;SDS011;32190;49.112;8.598;2024-01-30T05:49:31;2.38;;;1.52;;
32146;SDS011;32190;49.112;8.598;2024-01-30T05:55:21;3.50;;;1.80;;
32146;SDS011;32190;49.112;8.598;2024-01-30T06:01:12;2.15;;;1.98;;
32146;SDS011;32190;49.112;8.598;2024-01-30T06:07:09;2.60;;;1.88;;
32146;SDS011;32190;49.112;8.598;2024-01-30T06:13:07;2.25;;;1.75;;
32146;SDS011;32190;49.112;8.598;2024-01-30T06:18:58;2.03;;;1.85;;
32146;SDS011;32190;49.112;8.598;2024-01-30T06:24:50;2.55;;;1.85;;
32146;SDS011;32190;49.112;8.598;2024-01-30T06:30:40;1.67;;;1.58;;
32146;SDS011;32190;49.112;8.598;2024-01-30T06:36:42;1.60;;;1.50;;
32146;SDS011;32190;49.112;8.598;2024-01-30T06:42:33;2.65;;;1.70;;
32146;SDS011;32190;49.112;8.598;2024-01-30T06:48:24;2.45;;;1.83;;
32146;SDS011;32190;49.112;8.598;2024-01-30T06:54:14;1.50;;;1.35;;
32146;SDS011;32190;49.112;8.598;2024-01-30T07:00:05;2.40;;;1.75;;
32146;SDS011;32190;49.112;8.598;2024-01-30T07:05:56;2.03;;;1.80;;
32146;SDS011;32190;49.112;8.598;2024-01-30T07:11:50;1.92;;;1.65;;
32146;SDS011;32190;49.112;8.598;2024-01-30T07:17:41;1.73;;;1.63;;
32146;SDS011;32190;49.112;8.598;2024-01-30T07:24:15;1.63;;;1.52;;
32146;SDS011;32190;49.112;8.598;2024-01-30T07:30:09;1.27;;;1.17;;
32146;SDS011;32190;49.112;8.598;2024-01-30T07:36:00;2.28;;;2.03;;
32146;SDS011;32190;49.112;8.598;2024-01-30T07:41:50;3.55;;;1.77;;
32146;SDS011;32190;49.112;8.598;2024-01-30T07:47:41;2.50;;;2.30;;
32146;SDS011;32190;49.112;8.598;2024-01-30T07:53:32;2.00;;;1.85;;
32146;SDS011;32190;49.112;8.598;2024-01-30T07:59:49;3.13;;;2.33;;
32146;SDS011;32190;49.112;8.598;2024-01-30T08:05:42;3.45;;;2.50;;
32146;SDS011;32190;49.112;8.598;2024-01-30T08:11:32;2.50;;;2.10;;
32146;SDS011;32190;49.112;8.598;2024-01-30T08:17:23;3.20;;;2.15;;
32146;SDS011;32190;49.112;8.598;2024-01-30T08:23:16;3.40;;;2.55;;
32146;SDS011;32190;49.112;8.598;2024-01-30T08:29:09;3.83;;;3.08;;
32146;SDS011;32190;49.112;8.598;2024-01-30T08:35:00;4.97;;;3.72;;
32146;SDS011;32190;49.112;8.598;2024-01-30T08:41:00;4.22;;;3.30;;
32146;SDS011;32190;49.112;8.598;2024-01-30T08:47:09;5.00;;;3.13;;
32146;SDS011;32190;49.112;8.598;2024-01-30T08:53:00;4.75;;;3.90;;
32146;SDS011;32190;49.112;8.598;2024-01-30T08:58:50;4.90;;;3.55;;
32146;SDS011;32190;49.112;8.598;2024-01-30T09:04:41;5.88;;;4.43;;
32146;SDS011;32190;49.112;8.598;2024-01-30T09:10:32;8.05;;;5.32;;
32146;SDS011;32190;49.112;8.598;2024-01-30T09:16:22;7.40;;;5.10;;
32146;SDS011;32190;49.112;8.598;2024-01-30T09:22:13;6.20;;;4.47;;
32146;SDS011;32190;49.112;8.598;2024-01-30T09:28:13;8.20;;;4.40;;
32146;SDS011;32190;49.112;8.598;2024-01-30T09:34:12;6.57;;;4.03;;
32146;SDS011;32190;49.112;8.598;2024-01-30T09:40:03;4.53;;;3.42;;
32146;SDS011;32190;49.112;8.598;2024-01-30T09:45:55;7.32;;;3.63;;
32146;SDS011;32190;49.112;8.598;2024-01-30T09:51:47;3.60;;;2.88;;
32146;SDS011;32190;49.112;8.598;2024-01-30T09:57:41;3.00;;;2.70;;
32146;SDS011;32190;49.112;8.598;2024-01-30T10:03:32;3.53;;;2.70;;
32146;SDS011;32190;49.112;8.598;2024-01-30T10:09:22;2.72;;;2.45;;
32146;SDS011;32190;49.112;8.598;2024-01-30T10:15:13;2.63;;;2.42;;
32146;SDS011;32190;49.112;8.598;2024-01-30T10:21:04;5.40;;;2.80;;
32146;SDS011;32190;49.112;8.598;2024-01-30T10:26:55;2.58;;;2.20;;
32146;SDS011;32190;49.112;8.598;2024-01-30T10:32:46;2.55;;;2.35;;
32146;SDS011;32190;49.112;8.598;2024-01-30T10:38:36;2.70;;;2.50;;
32146;SDS011;32190;49.112;8.598;2024-01-30T10:44:30;3.03;;;2.63;;
32146;SDS011;32190;49.112;8.598;2024-01-30T10:50:26;4.68;;;3.13;;
32146;SDS011;32190;49.112;8.598;2024-01-30T10:56:22;4.63;;;2.47;;
32146;SDS011;32190;49.112;8.598;2024-01-30T11:02:14;2.50;;;2.28;;
32146;SDS011;32190;49.112;8.598;2024-01-30T11:08:14;2.60;;;2.40;;
32146;SDS011;32190;49.112;8.598;2024-01-30T11:14:12;2.75;;;2.55;;
32146;SDS011;32190;49.112;8.598;2024-01-30T11:20:03;2.75;;;2.15;;
32146;SDS011;32190;49.112;8.598;2024-01-30T11:25:54;4.60;;;3.35;;
32146;SDS011;32190;49.112;8.598;2024-01-30T11:31:52;3.15;;;2.85;;
32146;SDS011;32190;49.112;8.598;2024-01-30T11:37:43;2.95;;;2.63;;
32146;SDS011;32190;49.112;8.598;2024-01-30T11:43:39;4.72;;;2.75;;
32146;SDS011;32190;49.112;8.598;2024-01-30T11:49:29;3.97;;;3.58;;
32146;SDS011;32190;49.112;8.598;2024-01-30T12:02:19;6.03;;;4.27;;
32146;SDS011;32190;49.112;8.598;2024-01-30T12:14:25;3.30;;;3.00;;
32146;SDS011;32190;49.112;8.598;2024-01-30T12:21:07;2.63;;;2.42;;
32146;SDS011;32190;49.112;8.598;2024-01-30T12:27:14;3.08;;;2.40;;
32146;SDS011;32190;49.112;8.598;2024-01-30T12:33:17;2.80;;;2.60;;
32146;SDS011;32190;49.112;8.598;2024-01-30T12:51:39;3.28;;;2.55;;
32146;SDS011;32190;49.112;8.598;2024-01-30T12:57:30;3.35;;;2.47;;
32146;SDS011;32190;49.112;8.598;2024-01-30T13:03:21;3.80;;;2.25;;
32146;SDS011;32190;49.112;8.598;2024-01-30T13:09:12;3.67;;;2.42;;
32146;SDS011;32190;49.112;8.598;2024-01-30T13:15:03;3.22;;;2.72;;
32146;SDS011;32190;49.112;8.598;2024-01-30T13:20:55;4.05;;;2.47;;
32146;SDS011;32190;49.112;8.598;2024-01-30T13:26:46;3.90;;;2.90;;
32146;SDS011;32190;49.112;8.598;2024-01-30T13:32:36;4.20;;;2.92;;
32146;SDS011;32190;49.112;8.598;2024-01-30T13:38:27;4.13;;;2.78;;
32146;SDS011;32190;49.112;8.598;2024-01-30T13:44:24;3.10;;;2.70;;
32146;SDS011;32190;49.112;8.598;2024-01-30T13:50:15;5.28;;;2.85;;
32146;SDS011;32190;49.112;8.598;2024-01-30T13:56:06;3.00;;;2.70;;
32146;SDS011;32190;49.112;8.598;2024-01-30T14:02:02;4.43;;;3.17;;
32146;SDS011;32190;49.112;8.598;2024-01-30T14:07:53;3.15;;;2.47;;
32146;SDS011;32190;49.112;8.598;2024-01-30T14:13:44;3.65;;;3.20;;
32146;SDS011;32190;49.112;8.598;2024-01-30T14:19:35;3.72;;;3.38;;
32146;SDS011;32190;49.112;8.598;2024-01-30T14:25:44;3.30;;;2.88;;
32146;SDS011;32190;49.112;8.598;2024-01-30T14:31:35;4.95;;;2.72;;
32146;SDS011;32190;49.112;8.598;2024-01-30T14:37:26;4.03;;;2.65;;
32146;SDS011;32190;49.112;8.598;2024-01-30T14:43:19;3.65;;;2.60;;
32146;SDS011;32190;49.112;8.598;2024-01-30T14:49:09;4.03;;;2.85;;
32146;SDS011;32190;49.112;8.598;2024-01-30T14:55:00;2.67;;;2.47;;
32146;SDS011;32190;49.112;8.598;2024-01-30T15:00:51;3.75;;;3.35;;
32146;SDS011;32190;49.112;8.598;2024-01-30T15:06:41;3.30;;;2.78;;
32146;SDS011;32190;49.112;8.598;2024-01-30T15:12:35;4.93;;;3.05;;
32146;SDS011;32190;49.112;8.598;2024-01-30T15:18:26;3.10;;;2.80;;
32146;SDS011;32190;49.112;8.598;2024-01-30T15:24:17;3.17;;;2.78;;
32146;SDS011;32190;49.112;8.598;2024-01-30T15:30:11;2.78;;;2.45;;
32146;SDS011;32190;49.112;8.598;2024-01-30T15:36:03;2.63;;;2.42;;
32146;SDS011;32190;49.112;8.598;2024-01-30T15:41:54;2.97;;;2.67;;
32146;SDS011;32190;49.112;8.598;2024-01-30T15:47:45;4.10;;;2.58;;
32146;SDS011;32190;49.112;8.598;2024-01-30T15:53:36;2.45;;;2.25;;
32146;SDS011;32190;49.112;8.598;2024-01-30T15:59:26;3.58;;;2.70;;
32146;SDS011;32190;49.112;8.598;2024-01-30T16:05:17;2.80;;;2.55;;
32146;SDS011;32190;49.112;8.598;2024-01-30T16:11:08;3.67;;;2.75;;
32146;SDS011;32190;49.112;8.598;2024-01-30T16:16:59;2.35;;;2.08;;
32146;SDS011;32190;49.112;8.598;2024-01-30T16:22:50;2.60;;;2.30;;
32146;SDS011;32190;49.112;8.598;2024-01-30T16:28:42;2.70;;;2.08;;
32146;SDS011;32190;49.112;8.598;2024-01-30T16:34:36;3.67;;;2.78;;
32146;SDS011;32190;49.112;8.598;2024-01-30T16:40:29;3.22;;;2.95;;
32146;SDS011;32190;49.112;8.598;2024-01-30T16:46:20;4.30;;;2.70;;
32146;SDS011;32190;49.112;8.598;2024-01-30T16:52:11;10.20;;;5.28;;
32146;SDS011;32190;49.112;8.598;2024-01-30T16:58:01;4.13;;;3.67;;
32146;SDS011;32190;49.112;8.598;2024-01-30T17:03:54;3.88;;;3.17;;
32146;SDS011;32190;49.112;8.598;2024-01-30T17:09:45;3.95;;;3.20;;
32146;SDS011;32190;49.112;8.598;2024-01-30T17:15:35;3.58;;;3.17;;
32146;SDS011;32190;49.112;8.598;2024-01-30T17:21:26;3.22;;;2.78;;
32146;SDS011;32190;49.112;8.598;2024-01-30T17:27:16;3.30;;;2.90;;
32146;SDS011;32190;49.112;8.598;2024-01-30T17:33:07;4.00;;;2.88;;
32146;SDS011;32190;49.112;8.598;2024-01-30T17:38:58;3.30;;;2.83;;
32146;SDS011;32190;49.112;8.598;2024-01-30T17:44:50;2.83;;;2.47;;
32146;SDS011;32190;49.112;8.598;2024-01-30T17:50:41;2.72;;;2.28;;
32146;SDS011;32190;49.112;8.598;2024-01-30T17:56:31;2.80;;;2.50;;
32146;SDS011;32190;49.112;8.598;2024-01-30T18:02:22;3.08;;;2.78;;
32146;SDS011;32190;49.112;8.598;2024-01-30T18:08:13;4.47;;;2.75;;
32146;SDS011;32190;49.112;8.598;2024-01-30T18:14:03;3.22;;;2.72;;
32146;SDS011;32190;49.112;8.598;2024-01-30T18:19:54;3.83;;;2.70;;
32146;SDS011;32190;49.112;8.598;2024-01-30T18:25:45;3.55;;;2.70;;
32146;SDS011;32190;49.112;8.598;2024-01-30T18:31:50;2.75;;;2.55;;
32146;SDS011;32190;49.112;8.598;2024-01-30T18:37:41;3.65;;;3.03;;
32146;SDS011;32190;49.112;8.598;2024-01-30T18:43:31;4.28;;;2.85;;
32146;SDS011;32190;49.112;8.598;2024-01-30T18:49:22;3.00;;;2.67;;
32146;SDS011;32190;49.112;8.598;2024-01-30T18:55:13;3.45;;;3.08;;
32146;SDS011;32190;49.112;8.598;2024-01-30T19:01:07;4.95;;;3.15;;
32146;SDS011;32190;49.112;8.598;2024-01-30T19:06:59;3.05;;;2.55;;
32146;SDS011;32190;49.112;8.598;2024-01-30T19:12:50;2.97;;;2.67;;
32146;SDS011;32190;49.112;8.598;2024-01-30T19:18:41;2.75;;;2.40;;
32146;SDS011;32190;49.112;8.598;2024-01-30T19:24:48;3.58;;;2.53;;
32146;SDS011;32190;49.112;8.598;2024-01-30T19:30:39;3.13;;;2.28;;
32146;SDS011;32190;49.112;8.598;2024-01-30T19:36:37;2.83;;;2.55;;
32146;SDS011;32190;49.112;8.598;2024-01-30T19:42:29;2.90;;;2.70;;
32146;SDS011;32190;49.112;8.598;2024-01-30T19:48:30;3.22;;;2.90;;
32146;SDS011;32190;49.112;8.598;2024-01-30T19:54:22;3.35;;;2.70;;
32146;SDS011;32190;49.112;8.598;2024-01-30T20:00:17;3.38;;;2.72;;
32146;SDS011;32190;49.112;8.598;2024-01-30T20:06:08;5.10;;;3.42;;
32146;SDS011;32190;49.112;8.598;2024-01-30T20:11:59;3.65;;;2.83;;
32146;SDS011;32190;49.112;8.598;2024-01-30T20:18:00;3.03;;;2.35;;
32146;SDS011;32190;49.112;8.598;2024-01-30T20:23:50;2.75;;;2.40;;
32146;SDS011;32190;49.112;8.598;2024-01-30T20:29:41;3.17;;;2.88;;
32146;SDS011;32190;49.112;8.598;2024-01-30T20:35:31;3.30;;;3.00;;
32146;SDS011;32190;49.112;8.598;2024-01-30T20:41:22;3.35;;;2.67;;
32146;SDS011;32190;49.112;8.598;2024-01-30T20:47:13;3.47;;;2.83;;
32146;SDS011;32190;49.112;8.598;2024-01-30T20:53:03;3.67;;;2.95;;
32146;SDS011;32190;49.112;8.598;2024-01-30T20:58:54;4.10;;;2.53;;
32146;SDS011;32190;49.112;8.598;2024-01-30T21:04:45;3.20;;;2.67;;
32146;SDS011;32190;49.112;8.598;2024-01-30T21:10:35;3.50;;;2.95;;
32146;SDS011;32190;49.112;8.598;2024-01-30T21:16:26;4.13;;;3.03;;
32146;SDS011;32190;49.112;8.598;2024-01-30T21:22:17;3.97;;;2.95;;
32146;SDS011;32190;49.112;8.598;2024-01-30T21:28:07;4.15;;;3.20;;
32146;SDS011;32190;49.112;8.598;2024-01-30T21:33:58;2.67;;;2.30;;
32146;SDS011;32190;49.112;8.598;2024-01-30T21:39:49;2.45;;;2.25;;
32146;SDS011;32190;49.112;8.598;2024-01-30T21:45:39;4.88;;;2.97;;
32146;SDS011;32190;49.112;8.598;2024-01-30T21:51:30;3.15;;;2.65;;
32146;SDS011;32190;49.112;8.598;2024-01-30T21:57:21;2.92;;;2.63;;
32146;SDS011;32190;49.112;8.598;2024-01-30T22:03:11;2.80;;;2.33;;
32146;SDS011;32190;49.112;8.598;2024-01-30T22:09:02;3.63;;;2.55;;
32146;SDS011;32190;49.112;8.598;2024-01-30T22:14:53;2.90;;;2.70;;
32146;SDS011;32190;49.112;8.598;2024-01-30T22:20:43;3.35;;;2.80;;
32146;SDS011;32190;49.112;8.598;2024-01-30T22:26:43;3.67;;;2.70;;
32146;SDS011;32190;49.112;8.598;2024-01-30T22:32:34;3.08;;;2.72;;
32146;SDS011;32190;49.112;8.598;2024-01-30T22:38:26;4.05;;;3.65;;
32146;SDS011;32190;49.112;8.598;2024-01-30T22:44:17;5.50;;;3.42;;
32146;SDS011;32190;49.112;8.598;2024-01-30T22:50:07;5.30;;;3.58;;
32146;SDS011;32190;49.112;8.598;2024-01-30T22:55:58;5.45;;;3.85;;
32146;SDS011;32190;49.112;8.598;2024-01-30T23:01:49;3.25;;;2.95;;
32146;SDS011;32190;49.112;8.598;2024-01-30T23:07:39;4.03;;;3.15;;
32146;SDS011;32190;49.112;8.598;2024-01-30T23:13:30;3.45;;;2.97;;
32146;SDS011;32190;49.112;8.598;2024-01-30T23:19:20;3.17;;;2.88;;
32146;SDS011;32190;49.112;8.598;2024-01-30T23:25:11;4.88;;;3.25;;
32146;SDS011;32190;49.112;8.598;2024-01-30T23:31:02;4.93;;;3.28;;
32146;SDS011;32190;49.112;8.598;2024-01-30T23:36:52;2.95;;;2.65;;
32146;SDS011;32190;49.112;8.598;2024-01-30T23:42:43;4.25;;;3.50;;
32146;SDS011;32190;49.112;8.598;2024-01-30T23:48:33;3.85;;;2.92;;
32146;SDS011;32190;49.112;8.598;2024-01-30T23:54:24;4.10;;;3.60;;
